createdAt,value
2019-05-02T00:02:01.178Z,79.09
2019-05-02T00:04:30.787Z,79.03
2019-05-02T00:07:09.620Z,78.95
2019-05-02T00:09:47.126Z,78.98
2019-05-02T00:12:19.837Z,79.23
2019-05-02T00:14:49.894Z,79.07
2019-05-02T00:17:25.571Z,79.79
2019-05-02T00:19:52.402Z,79.88
2019-05-02T00:22:23.149Z,79.31
2019-05-02T00:24:53.405Z,80.16
2019-05-02T00:27:24.815Z,80.42
2019-05-02T00:29:58.672Z,80.26
2019-05-02T00:32:26.682Z,79.77
2019-05-02T00:34:57.200Z,79.76
2019-05-02T00:37:27.361Z,79.83
2019-05-02T00:39:57.031Z,79.99
2019-05-02T00:42:26.696Z,80.40
2019-05-02T00:44:56.589Z,80.69
2019-05-02T00:47:33.717Z,80.52
2019-05-02T00:50:06.305Z,80.52
2019-05-02T00:52:37.794Z,79.82
2019-05-02T00:55:08.186Z,79.34
2019-05-02T00:57:38.747Z,78.79
2019-05-02T01:00:13.369Z,77.74
2019-05-02T01:02:52.830Z,77.07
2019-05-02T01:05:25.857Z,76.75
2019-05-02T01:08:01.013Z,74.78
2019-05-02T01:10:35.075Z,73.71
2019-05-02T01:13:05.297Z,73.55
2019-05-02T01:15:39.025Z,73.03
2019-05-02T01:18:07.995Z,72.85
2019-05-02T01:20:38.095Z,72.15
2019-05-02T01:23:08.327Z,72.49
2019-05-02T01:25:40.418Z,72.45
2019-05-02T01:28:29.136Z,72.39
2019-05-02T01:31:26.510Z,72.40
2019-05-02T01:34:19.214Z,72.07
2019-05-02T01:36:56.855Z,72.43
2019-05-02T01:39:26.827Z,72.50
2019-05-02T01:41:59.958Z,72.81
2019-05-02T01:44:31.207Z,72.54
2019-05-02T01:47:01.415Z,72.49
2019-05-02T01:49:31.491Z,72.65
2019-05-02T01:52:02.733Z,71.86
2019-05-02T01:54:32.674Z,72.07
2019-05-02T01:57:03.915Z,71.66
2019-05-02T01:59:35.128Z,71.25
2019-05-02T02:02:05.240Z,71.41
2019-05-02T02:04:36.249Z,70.91
2019-05-02T02:07:06.482Z,70.74
2019-05-02T02:09:38.944Z,70.92
2019-05-02T02:12:11.461Z,70.51
2019-05-02T02:14:41.166Z,70.30
2019-05-02T02:17:15.478Z,70.09
2019-05-02T02:19:48.449Z,69.79
2019-05-02T02:22:33.749Z,69.80
2019-05-02T02:25:38.726Z,69.54
2019-05-02T02:28:10.234Z,69.79
2019-05-02T02:30:40.432Z,68.95
2019-05-02T02:33:13.241Z,68.67
2019-05-02T02:35:49.946Z,68.36
2019-05-02T02:38:16.397Z,68.21
2019-05-02T02:40:46.507Z,68.05
2019-05-02T02:43:32.942Z,67.84
2019-05-02T02:46:15.111Z,67.75
2019-05-02T02:48:45.240Z,68.24
2019-05-02T02:51:24.041Z,67.82
2019-05-02T02:53:46.606Z,67.82
2019-05-02T02:56:16.730Z,67.57
2019-05-02T02:58:48.011Z,67.64
2019-05-02T03:01:27.781Z,67.24
2019-05-02T03:03:50.493Z,67.36
2019-05-02T03:06:19.979Z,67.23
2019-05-02T03:08:49.767Z,66.66
2019-05-02T03:11:23.478Z,66.88
2019-05-02T03:14:09.250Z,67.13
2019-05-02T03:16:45.568Z,66.99
2019-05-02T03:19:14.774Z,66.87
2019-05-02T03:22:00.329Z,67.11
2019-05-02T03:24:27.477Z,66.91
2019-05-02T03:26:58.461Z,67.32
2019-05-02T03:29:39.226Z,67.28
2019-05-02T03:32:14.221Z,67.23
2019-05-02T03:34:47.965Z,67.36
2019-05-02T03:37:10.760Z,66.89
2019-05-02T03:39:41.639Z,66.89
2019-05-02T03:42:12.354Z,67.12
2019-05-02T03:44:41.911Z,66.89
2019-05-02T03:47:14.192Z,66.07
2019-05-02T03:49:48.733Z,66.50
2019-05-02T03:52:16.205Z,65.20
2019-05-02T03:54:50.294Z,65.41
2019-05-02T03:57:31.667Z,64.16
2019-05-02T03:59:53.914Z,63.39
2019-05-02T04:02:24.934Z,63.66
2019-05-02T04:05:00.405Z,62.96
2019-05-02T04:07:39.722Z,62.16
2019-05-02T04:10:01.680Z,61.86
2019-05-02T04:12:32.927Z,62.17
2019-05-02T04:15:02.924Z,61.30
2019-05-02T04:17:35.304Z,61.47
2019-05-02T04:20:09.372Z,61.11
2019-05-02T04:22:42.675Z,61.35
2019-05-02T04:25:11.869Z,61.05
2019-05-02T04:27:42.374Z,60.10
2019-05-02T04:30:14.222Z,59.95
2019-05-02T04:32:49.751Z,60.06
2019-05-02T04:35:15.810Z,59.81
2019-05-02T04:37:45.611Z,60.33
2019-05-02T04:40:18.807Z,60.06
2019-05-02T04:42:51.263Z,59.98
2019-05-02T04:45:29.053Z,60.13
2019-05-02T04:47:58.611Z,60.42
2019-05-02T04:50:29.417Z,60.53
2019-05-02T04:53:01.394Z,60.41
2019-05-02T04:55:33.454Z,61.22
2019-05-02T04:58:03.235Z,61.68
2019-05-02T05:00:35.076Z,61.84
2019-05-02T05:03:15.262Z,62.04
2019-05-02T05:05:40.378Z,62.08
2019-05-02T05:08:17.480Z,62.27
2019-05-02T05:10:45.045Z,62.30
2019-05-02T05:13:19.723Z,62.41
2019-05-02T05:15:51.194Z,62.39
2019-05-02T05:18:18.539Z,61.99
2019-05-02T05:20:52.934Z,61.63
2019-05-02T05:23:51.731Z,61.68
2019-05-02T05:26:20.611Z,61.21
2019-05-02T05:28:53.281Z,61.25
2019-05-02T05:31:26.416Z,61.47
2019-05-02T05:33:57.871Z,60.88
2019-05-02T05:36:32.569Z,61.08
2019-05-02T05:39:02.919Z,61.09
2019-05-02T05:41:31.451Z,61.54
2019-05-02T05:44:05.043Z,61.50
2019-05-02T05:46:40.606Z,61.84
2019-05-02T05:49:12.587Z,62.17
2019-05-02T05:51:38.314Z,61.97
2019-05-02T05:54:12.601Z,62.10
2019-05-02T05:56:43.355Z,62.26
2019-05-02T05:59:14.251Z,62.29
2019-05-02T06:01:44.602Z,61.86
2019-05-02T06:04:24.018Z,61.87
2019-05-02T06:06:54.138Z,62.20
2019-05-02T06:09:26.382Z,62.87
2019-05-02T06:11:56.690Z,62.57
2019-05-02T06:14:26.901Z,62.83
2019-05-02T06:16:57.561Z,62.76
2019-05-02T06:19:27.278Z,62.64
2019-05-02T06:21:57.314Z,62.36
2019-05-02T06:24:27.363Z,62.38
2019-05-02T06:26:56.914Z,62.37
2019-05-02T06:29:27.705Z,61.84
2019-05-02T06:32:01.872Z,61.84
2019-05-02T06:34:32.554Z,61.45
2019-05-02T06:37:02.907Z,61.59
2019-05-02T06:39:33.253Z,61.53
2019-05-02T06:42:03.012Z,61.49
2019-05-02T06:44:33.131Z,60.95
2019-05-02T06:47:04.281Z,60.64
2019-05-02T06:49:34.791Z,61.19
2019-05-02T06:52:04.897Z,60.85
2019-05-02T06:54:34.841Z,61.22
2019-05-02T06:57:04.833Z,61.11
2019-05-02T06:59:35.779Z,61.00
2019-05-02T07:02:06.593Z,60.61
2019-05-02T07:04:37.219Z,60.82
2019-05-02T07:07:07.348Z,60.61
2019-05-02T07:09:40.934Z,60.96
2019-05-02T07:12:14.815Z,61.13
2019-05-02T07:14:45.726Z,60.88
2019-05-02T07:17:39.307Z,61.29
2019-05-02T07:20:10.632Z,61.27
2019-05-02T07:22:45.462Z,60.72
2019-05-02T07:25:17.012Z,61.06
2019-05-02T07:27:48.230Z,61.60
2019-05-02T07:30:18.261Z,61.86
2019-05-02T07:32:47.991Z,62.86
2019-05-02T07:35:19.259Z,63.15
2019-05-02T07:37:50.122Z,64.00
2019-05-02T07:40:21.366Z,65.11
2019-05-02T07:42:51.506Z,64.44
2019-05-02T07:45:21.576Z,65.06
2019-05-02T07:47:53.465Z,64.60
2019-05-02T07:50:23.393Z,63.30
2019-05-02T07:53:04.371Z,64.10
2019-05-02T07:55:35.436Z,64.53
2019-05-02T07:58:06.974Z,65.02
2019-05-02T08:00:37.161Z,64.97
2019-05-02T08:03:06.207Z,64.36
2019-05-02T08:05:36.067Z,64.30
2019-05-02T08:08:05.552Z,64.94
2019-05-02T08:10:35.441Z,64.81
2019-05-02T08:13:05.189Z,65.03
2019-05-02T08:15:35.517Z,64.56
2019-05-02T08:18:08.606Z,64.56
2019-05-02T08:20:38.158Z,64.37
2019-05-02T08:23:08.430Z,64.29
2019-05-02T08:25:41.446Z,64.22
2019-05-02T08:28:33.945Z,63.62
2019-05-02T08:31:03.699Z,64.34
2019-05-02T08:33:34.777Z,65.09
2019-05-02T08:36:04.614Z,64.81
2019-05-02T08:38:34.708Z,64.44
2019-05-02T08:41:04.272Z,64.26
2019-05-02T08:43:33.982Z,63.42
2019-05-02T08:46:04.127Z,61.98
2019-05-02T08:48:36.594Z,61.94
2019-05-02T08:51:06.510Z,60.78
2019-05-02T08:53:36.084Z,60.66
2019-05-02T08:56:05.717Z,60.56
2019-05-02T08:58:35.739Z,60.31
2019-05-02T09:01:09.180Z,59.42
2019-05-02T09:03:54.765Z,59.19
2019-05-02T09:06:08.806Z,58.83
2019-05-02T09:08:38.915Z,57.64
2019-05-02T09:11:14.044Z,57.69
2019-05-02T09:13:42.073Z,57.32
2019-05-02T09:16:12.139Z,56.98
2019-05-02T09:18:51.795Z,56.77
2019-05-02T09:21:18.913Z,56.32
2019-05-02T09:23:48.643Z,55.79
2019-05-02T09:26:31.981Z,55.48
2019-05-02T09:28:51.718Z,54.79
2019-05-02T09:31:22.722Z,53.20
2019-05-02T09:33:55.519Z,53.36
2019-05-02T09:36:25.900Z,52.37
2019-05-02T09:38:57.685Z,52.20
2019-05-02T09:41:32.427Z,51.66
2019-05-02T09:43:59.064Z,51.08
2019-05-02T09:46:29.771Z,50.63
2019-05-02T09:49:02.472Z,50.27
2019-05-02T09:51:33.707Z,49.80
2019-05-02T09:54:06.484Z,50.81
2019-05-02T09:56:36.484Z,50.66
2019-05-02T09:59:24.320Z,50.89
2019-05-02T10:01:42.229Z,51.36
2019-05-02T10:04:12.732Z,51.41
2019-05-02T10:06:42.953Z,50.60
2019-05-02T10:09:13.378Z,49.59
2019-05-02T10:11:43.399Z,49.07
2019-05-02T10:14:14.428Z,48.80
2019-05-02T10:16:44.438Z,49.85
2019-05-02T10:19:13.928Z,49.03
2019-05-02T10:21:47.001Z,46.99
2019-05-02T10:24:14.858Z,45.16
2019-05-02T10:26:44.467Z,46.29
2019-05-02T10:29:15.808Z,46.16
2019-05-02T10:31:45.634Z,45.05
2019-05-02T10:34:17.698Z,46.12
2019-05-02T10:36:51.948Z,46.89
2019-05-02T10:39:18.206Z,46.13
2019-05-02T10:41:48.251Z,46.23
2019-05-02T10:44:17.841Z,44.85
2019-05-02T10:46:58.651Z,44.90
2019-05-02T10:49:49.635Z,43.92
2019-05-02T10:52:21.583Z,43.16
2019-05-02T10:54:52.844Z,43.44
2019-05-02T10:57:25.241Z,44.25
2019-05-02T10:59:56.222Z,45.28
2019-05-02T11:02:44.987Z,47.10
2019-05-02T11:05:22.505Z,48.13
2019-05-02T11:07:56.599Z,48.36
2019-05-02T11:10:23.812Z,48.06
2019-05-02T11:13:05.156Z,48.64
2019-05-02T11:15:57.743Z,49.14
2019-05-02T11:18:40.195Z,48.82
2019-05-02T11:21:06.798Z,48.78
2019-05-02T11:23:32.851Z,48.49
2019-05-02T11:26:02.472Z,47.30
2019-05-02T11:28:37.047Z,48.00
2019-05-02T11:31:08.614Z,47.68
2019-05-02T11:33:39.220Z,46.42
2019-05-02T11:36:13.750Z,46.08
2019-05-02T11:38:49.225Z,45.96
2019-05-02T11:41:17.615Z,46.13
2019-05-02T11:43:47.413Z,45.93
2019-05-02T11:46:22.090Z,46.26
2019-05-02T11:48:56.345Z,46.00
2019-05-02T11:51:24.173Z,45.89
2019-05-02T11:53:54.386Z,45.00
2019-05-02T11:56:23.922Z,45.17
2019-05-02T11:58:54.179Z,44.82
2019-05-02T12:01:35.438Z,44.90
2019-05-02T12:03:58.424Z,43.28
2019-05-02T12:06:28.121Z,43.45
2019-05-02T12:08:58.098Z,43.40
2019-05-02T12:11:28.615Z,42.01
2019-05-02T12:14:01.543Z,42.14
2019-05-02T12:16:32.320Z,41.68
2019-05-02T12:19:11.761Z,41.35
2019-05-02T12:21:34.404Z,41.67
2019-05-02T12:24:06.740Z,42.52
2019-05-02T12:26:36.314Z,42.72
2019-05-02T12:29:05.886Z,43.66
2019-05-02T12:31:35.900Z,44.88
2019-05-02T12:34:07.536Z,45.84
2019-05-02T12:36:38.516Z,45.34
2019-05-02T12:39:09.486Z,45.51
2019-05-02T12:41:42.338Z,44.03
2019-05-02T12:44:14.281Z,42.90
2019-05-02T12:46:47.476Z,44.54
2019-05-02T12:49:26.305Z,45.34
2019-05-02T12:51:48.799Z,44.94
2019-05-02T12:54:18.627Z,45.09
2019-05-02T12:56:49.231Z,45.58
2019-05-02T12:59:19.464Z,44.92
2019-05-02T13:01:51.686Z,45.74
2019-05-02T13:04:22.988Z,45.96
2019-05-02T13:06:53.227Z,45.31
2019-05-02T13:09:23.576Z,44.73
2019-05-02T13:12:00.053Z,42.75
2019-05-02T13:14:32.167Z,41.65
2019-05-02T13:17:05.543Z,43.26
2019-05-02T13:19:39.918Z,43.47
2019-05-02T13:22:16.235Z,43.36
2019-05-02T13:24:54.946Z,42.70
2019-05-02T13:27:24.458Z,43.86
2019-05-02T13:29:54.760Z,42.25
2019-05-02T13:32:34.234Z,40.55
2019-05-02T13:35:34.342Z,41.32
2019-05-02T13:38:08.352Z,40.39
2019-05-02T13:40:45.209Z,38.09
2019-05-02T13:43:18.877Z,37.67
2019-05-02T13:46:12.592Z,39.57
2019-05-02T13:48:42.943Z,39.25
2019-05-02T13:51:16.162Z,38.22
2019-05-02T13:53:57.837Z,39.48
2019-05-02T13:56:47.879Z,42.66
2019-05-02T13:59:22.177Z,43.17
2019-05-02T14:01:53.651Z,44.02
2019-05-02T14:04:24.804Z,44.43
2019-05-02T14:06:56.150Z,44.15
2019-05-02T14:09:45.067Z,44.52
2019-05-02T14:12:21.860Z,44.61
2019-05-02T14:14:51.999Z,44.32
2019-05-02T14:17:22.943Z,45.30
2019-05-02T14:20:07.456Z,45.70
2019-05-02T14:22:25.664Z,46.02
2019-05-02T14:24:56.649Z,45.85
2019-05-02T14:27:27.356Z,46.31
2019-05-02T14:29:57.640Z,46.44
2019-05-02T14:32:28.353Z,46.61
2019-05-02T14:35:18.615Z,45.88
2019-05-02T14:38:09.614Z,43.82
2019-05-02T14:40:52.679Z,41.62
2019-05-02T14:43:46.114Z,41.09
2019-05-02T14:46:12.559Z,38.91
2019-05-02T14:48:45.300Z,39.25
2019-05-02T14:51:22.888Z,39.49
2019-05-02T14:53:52.759Z,39.76
2019-05-02T14:56:46.226Z,40.42
2019-05-02T14:59:15.166Z,41.50
2019-05-02T15:01:50.007Z,43.75
2019-05-02T15:04:22.713Z,43.66
2019-05-02T15:06:53.363Z,43.83
2019-05-02T15:09:26.825Z,43.45
2019-05-02T15:11:59.428Z,43.85
2019-05-02T15:14:37.034Z,45.06
2019-05-02T15:17:07.673Z,45.74
2019-05-02T15:19:38.431Z,46.40
2019-05-02T15:22:07.896Z,47.29
2019-05-02T15:24:38.166Z,47.65
2019-05-02T15:27:16.660Z,47.82
2019-05-02T15:29:39.387Z,47.71
2019-05-02T15:32:46.430Z,48.63
2019-05-02T15:35:42.648Z,50.11
2019-05-02T15:38:19.743Z,51.41
2019-05-02T15:40:50.054Z,52.78
2019-05-02T15:43:16.594Z,52.20
2019-05-02T15:45:46.993Z,53.16
2019-05-02T15:48:22.814Z,53.22
2019-05-02T15:50:52.980Z,52.73
2019-05-02T15:53:49.725Z,53.51
2019-05-02T15:56:20.337Z,53.93
2019-05-02T15:58:52.025Z,53.68
2019-05-02T16:01:49.110Z,53.72
2019-05-02T16:04:24.084Z,54.66
2019-05-02T16:06:53.418Z,54.77
2019-05-02T16:09:24.654Z,54.88
2019-05-02T16:11:56.870Z,54.88
2019-05-02T16:14:34.093Z,55.03
2019-05-02T16:17:01.050Z,55.25
2019-05-02T16:19:32.898Z,54.91
2019-05-02T16:22:32.405Z,56.01
2019-05-02T16:25:05.888Z,55.89
2019-05-02T16:27:49.499Z,55.19
2019-05-02T16:30:29.657Z,55.39
2019-05-02T16:33:02.672Z,55.45
2019-05-02T16:35:34.615Z,54.76
2019-05-02T16:38:04.868Z,54.60
2019-05-02T16:40:35.062Z,53.44
2019-05-02T16:43:04.831Z,51.56
2019-05-02T16:45:34.340Z,50.18
2019-05-02T16:48:05.009Z,46.69
2019-05-02T16:50:37.102Z,45.26
2019-05-02T16:53:06.963Z,45.26
2019-05-02T16:55:37.285Z,46.15
2019-05-02T16:58:07.494Z,46.57
2019-05-02T17:00:42.528Z,46.57
2019-05-02T17:03:09.277Z,47.16
2019-05-02T17:05:44.283Z,47.26
2019-05-02T17:08:27.268Z,47.80
2019-05-02T17:11:15.897Z,47.88
2019-05-02T17:13:45.753Z,48.04
2019-05-02T17:16:17.329Z,47.95
2019-05-02T17:18:48.222Z,47.91
2019-05-02T17:21:18.919Z,48.06
2019-05-02T17:23:51.931Z,48.25
2019-05-02T17:26:22.700Z,48.27
2019-05-02T17:28:53.385Z,48.45
2019-05-02T17:31:23.604Z,48.55
2019-05-02T17:33:54.945Z,48.73
2019-05-02T17:36:28.647Z,48.98
2019-05-02T17:39:03.671Z,49.63
2019-05-02T17:41:31.814Z,49.63
2019-05-02T17:44:03.259Z,49.51
2019-05-02T17:46:33.256Z,49.49
2019-05-02T17:49:04.479Z,49.31
2019-05-02T17:52:04.942Z,49.46
2019-05-02T17:54:26.424Z,49.37
2019-05-02T17:56:57.542Z,49.73
2019-05-02T17:59:33.017Z,49.82
2019-05-02T18:01:59.457Z,49.75
2019-05-02T18:04:29.569Z,50.06
2019-05-02T18:06:59.165Z,50.06
2019-05-02T18:09:31.730Z,49.76
2019-05-02T18:12:01.547Z,49.76
2019-05-02T18:14:31.646Z,49.78
2019-05-02T18:17:01.908Z,49.78
2019-05-02T18:19:32.400Z,49.58
2019-05-02T18:22:03.533Z,49.74
2019-05-02T18:24:37.387Z,49.74
2019-05-02T18:27:05.669Z,49.57
2019-05-02T18:29:41.490Z,49.65
2019-05-02T18:32:09.804Z,49.61
2019-05-02T18:34:41.692Z,49.62
2019-05-02T18:37:11.128Z,49.63
2019-05-02T18:39:49.950Z,49.81
2019-05-02T18:42:16.534Z,49.76
2019-05-02T18:44:48.195Z,50.01
2019-05-02T18:47:20.381Z,49.78
2019-05-02T18:49:53.826Z,49.52
2019-05-02T18:52:35.630Z,49.34
2019-05-02T18:54:57.401Z,49.22
2019-05-02T18:57:29.742Z,48.58
2019-05-02T19:00:02.392Z,48.58
2019-05-02T19:02:35.663Z,48.46
2019-05-02T19:05:13.416Z,48.76
2019-05-02T19:07:42.622Z,49.23
2019-05-02T19:10:12.159Z,49.09
2019-05-02T19:12:42.081Z,49.39
2019-05-02T19:15:13.358Z,49.35
2019-05-02T19:17:45.725Z,49.35
2019-05-02T19:20:58.595Z,49.40
2019-05-02T19:23:31.992Z,49.76
2019-05-02T19:26:14.963Z,50.02
2019-05-02T19:29:08.342Z,50.13
2019-05-02T19:31:46.239Z,50.13
2019-05-02T19:34:16.719Z,50.71
2019-05-02T19:36:46.320Z,50.71
2019-05-02T19:39:16.825Z,50.88
2019-05-02T19:41:47.758Z,50.83
2019-05-02T19:44:21.475Z,51.39
2019-05-02T19:46:49.328Z,51.48
2019-05-02T19:49:19.120Z,51.51
2019-05-02T19:52:08.035Z,51.07
2019-05-02T19:54:41.687Z,50.94
2019-05-02T19:58:02.410Z,50.87
2019-05-02T20:00:36.605Z,50.87
2019-05-02T20:03:04.030Z,50.43
2019-05-02T20:05:33.840Z,49.63
2019-05-02T20:08:06.504Z,49.60
2019-05-02T20:10:36.579Z,48.81
2019-05-02T20:13:07.252Z,48.43
2019-05-02T20:15:42.168Z,47.96
2019-05-02T20:18:12.073Z,47.96
2019-05-02T20:21:11.754Z,47.68
2019-05-02T20:23:43.201Z,47.59
2019-05-02T20:26:15.463Z,47.62
2019-05-02T20:28:45.771Z,47.39
2019-05-02T20:31:16.417Z,47.39
2019-05-02T20:33:46.399Z,47.31
2019-05-02T20:36:16.237Z,47.25
2019-05-02T20:38:46.238Z,47.16
2019-05-02T20:41:18.854Z,46.91
2019-05-02T20:43:48.340Z,46.95
2019-05-02T20:46:18.476Z,46.76
2019-05-02T20:48:48.578Z,46.52
2019-05-02T20:51:19.562Z,46.52
2019-05-02T20:53:52.385Z,46.37
2019-05-02T20:56:22.964Z,46.65
2019-05-02T20:58:52.978Z,46.65
2019-05-02T21:01:23.258Z,46.58
2019-05-02T21:03:53.544Z,46.56
2019-05-02T21:06:49.432Z,46.60
2019-05-02T21:09:29.647Z,46.85
2019-05-02T21:12:05.250Z,46.71
2019-05-02T21:14:39.026Z,46.52
2019-05-02T21:17:13.060Z,46.01
2019-05-02T21:19:44.450Z,46.07
2019-05-02T21:22:22.558Z,45.88
2019-05-02T21:24:53.122Z,45.50
2019-05-02T21:27:23.381Z,45.69
2019-05-02T21:29:53.487Z,45.20
2019-05-02T21:32:23.321Z,45.45
2019-05-02T21:34:53.842Z,45.16
2019-05-02T21:37:26.181Z,44.96
2019-05-02T21:39:57.799Z,44.86
2019-05-02T21:42:28.429Z,44.86
2019-05-02T21:44:58.569Z,44.86
2019-05-02T21:47:31.867Z,44.18
2019-05-02T21:50:13.918Z,44.18
2019-05-02T21:53:18.136Z,44.06
2019-05-02T21:56:12.163Z,44.07
2019-05-02T21:59:02.837Z,43.85
2019-05-02T22:01:34.149Z,43.93
2019-05-02T22:04:04.437Z,43.41
2019-05-02T22:06:38.814Z,43.41
2019-05-02T22:09:12.583Z,43.43
2019-05-02T22:11:44.304Z,43.52
2019-05-02T22:14:14.750Z,43.41
2019-05-02T22:16:46.015Z,43.24
2019-05-02T22:19:20.455Z,43.27
2019-05-02T22:21:52.451Z,43.27
2019-05-02T22:24:22.679Z,43.13
2019-05-02T22:26:53.816Z,42.82
2019-05-02T22:29:23.492Z,42.82
2019-05-02T22:31:54.526Z,43.04
2019-05-02T22:34:24.826Z,42.79
2019-05-02T22:36:55.418Z,42.62
2019-05-02T22:39:42.661Z,42.61
2019-05-02T22:42:13.346Z,42.38
2019-05-02T22:44:44.088Z,42.55
2019-05-02T22:47:14.659Z,42.64
2019-05-02T22:49:44.621Z,42.53
2019-05-02T22:52:16.230Z,43.11
2019-05-02T22:54:46.361Z,43.11
2019-05-02T22:57:16.877Z,43.49
2019-05-02T22:59:46.889Z,43.72
2019-05-02T23:02:17.308Z,44.08
2019-05-02T23:04:47.157Z,44.38
2019-05-02T23:07:17.800Z,44.47
2019-05-02T23:09:47.859Z,44.67
2019-05-02T23:12:17.699Z,44.81
2019-05-02T23:14:47.541Z,45.27
2019-05-02T23:17:19.542Z,45.54
2019-05-02T23:19:49.508Z,45.80
2019-05-02T23:22:21.782Z,45.96
2019-05-02T23:25:29.614Z,46.26
2019-05-02T23:28:03.505Z,46.26
2019-05-02T23:30:34.527Z,46.71
2019-05-02T23:33:04.717Z,46.98
2019-05-02T23:35:35.039Z,46.98
2019-05-02T23:38:04.873Z,47.28
2019-05-02T23:40:35.825Z,47.17
2019-05-02T23:43:06.353Z,47.28
2019-05-02T23:45:36.708Z,47.50
2019-05-02T23:48:06.615Z,47.50
2019-05-02T23:50:36.633Z,47.83
2019-05-02T23:53:06.755Z,48.04
2019-05-02T23:55:37.063Z,48.22
2019-05-02T23:58:07.506Z,48.38
